メインページ
METAR-TAF:

METAR-TAF

空港 :

広島空港

広島, 日本

緯度: 34-26N, 経度: 132-55E, 海抜: 331m

現時点の気象観測

当レポートは43分前の08:00(UTC)に作成
南東の風 4kt、からの間で変化する
気温 27°C
湿度 62%
気圧 1009 hPa
視程10km以上
高度3000ftの雲はほとんどない
高度6000ftの雲は散在している
千切れ雲あり

METAR: RJOA 200800Z 13004KT 100V170 9999 FEW030 SCT060 BKN/// 27/19 Q1009

時間: 17:43 (08:43 UTC)

予報

当レポートは3時間37分前の05:06(UTC)に作成
予報は20日の 06時(UTC)から 21日の 12時(UTC)まで有効
東/北東の風 7kt
視程10km以上
高度2500ftの雲はほとんどない

TAF: RJOA 200506Z 2006/2112 06007KT 9999 FEW025

4,000以上の空港の気象観測と天気予報(METAR報とTAF報)

利用可能な観測所は地図上に黄色い丸と赤い丸で示す。

丸の上にカーソルを重ねると観測所名を参照できる。

次にクリックすると気象観測と天気予報を参照できる。

マップの切り替え:黒色「×」印の緑ボタンをクリックして拡大、「-」印の緑ボタンをクリックして縮小、緑色の三角印をクリックして隣りの地図に切り替え


METAR-TAF: